sensor_id;sensor_type;location;lat;lon;timestamp;P1;durP1;ratioP1;P2;durP2;ratioP2
27566;SDS011;15006;48.584;9.186;2023-12-22T00:00:14;1.33;;;0.40;;
27566;SDS011;15006;48.584;9.186;2023-12-22T00:02:40;1.13;;;0.60;;
27566;SDS011;15006;48.584;9.186;2023-12-22T00:05:07;0.73;;;0.50;;
27566;SDS011;15006;48.584;9.186;2023-12-22T00:07:33;1.02;;;0.50;;
27566;SDS011;15006;48.584;9.186;2023-12-22T00:09:58;2.38;;;0.85;;
27566;SDS011;15006;48.584;9.186;2023-12-22T00:12:24;0.95;;;0.85;;
27566;SDS011;15006;48.584;9.186;2023-12-22T00:14:50;3.53;;;0.98;;
27566;SDS011;15006;48.584;9.186;2023-12-22T00:17:16;1.50;;;0.90;;
27566;SDS011;15006;48.584;9.186;2023-12-22T00:19:42;5.07;;;1.15;;
27566;SDS011;15006;48.584;9.186;2023-12-22T00:22:08;2.67;;;0.93;;
27566;SDS011;15006;48.584;9.186;2023-12-22T00:24:34;3.85;;;1.33;;
27566;SDS011;15006;48.584;9.186;2023-12-22T00:27:00;4.47;;;1.25;;
27566;SDS011;15006;48.584;9.186;2023-12-22T00:29:26;3.95;;;1.40;;
27566;SDS011;15006;48.584;9.186;2023-12-22T00:31:53;5.00;;;1.20;;
27566;SDS011;15006;48.584;9.186;2023-12-22T00:34:21;4.40;;;1.38;;
27566;SDS011;15006;48.584;9.186;2023-12-22T00:36:47;4.45;;;1.35;;
27566;SDS011;15006;48.584;9.186;2023-12-22T00:39:13;4.13;;;1.25;;
27566;SDS011;15006;48.584;9.186;2023-12-22T00:41:39;3.00;;;1.02;;
27566;SDS011;15006;48.584;9.186;2023-12-22T00:44:05;3.00;;;1.00;;
27566;SDS011;15006;48.584;9.186;2023-12-22T00:46:31;4.70;;;1.50;;
27566;SDS011;15006;48.584;9.186;2023-12-22T00:48:57;6.40;;;1.48;;
27566;SDS011;15006;48.584;9.186;2023-12-22T00:51:23;1.67;;;1.17;;
27566;SDS011;15006;48.584;9.186;2023-12-22T00:53:49;3.63;;;1.40;;
27566;SDS011;15006;48.584;9.186;2023-12-22T00:56:15;4.25;;;1.20;;
27566;SDS011;15006;48.584;9.186;2023-12-22T00:58:41;3.67;;;1.33;;
27566;SDS011;15006;48.584;9.186;2023-12-22T01:01:07;4.60;;;1.33;;
27566;SDS011;15006;48.584;9.186;2023-12-22T01:03:33;3.95;;;1.17;;
27566;SDS011;15006;48.584;9.186;2023-12-22T01:05:59;5.13;;;1.42;;
27566;SDS011;15006;48.584;9.186;2023-12-22T01:08:25;4.40;;;1.50;;
27566;SDS011;15006;48.584;9.186;2023-12-22T01:10:51;1.90;;;1.02;;
27566;SDS011;15006;48.584;9.186;2023-12-22T01:13:17;3.15;;;1.17;;
27566;SDS011;15006;48.584;9.186;2023-12-22T01:15:43;3.55;;;1.30;;
27566;SDS011;15006;48.584;9.186;2023-12-22T01:18:09;3.25;;;1.15;;
27566;SDS011;15006;48.584;9.186;2023-12-22T01:20:36;3.40;;;1.10;;
27566;SDS011;15006;48.584;9.186;2023-12-22T01:23:02;6.65;;;1.83;;
27566;SDS011;15006;48.584;9.186;2023-12-22T01:25:28;3.13;;;1.13;;
27566;SDS011;15006;48.584;9.186;2023-12-22T01:27:54;7.00;;;1.45;;
27566;SDS011;15006;48.584;9.186;2023-12-22T01:30:20;4.82;;;1.48;;
27566;SDS011;15006;48.584;9.186;2023-12-22T01:32:46;5.55;;;1.33;;
27566;SDS011;15006;48.584;9.186;2023-12-22T01:35:12;7.30;;;1.20;;
27566;SDS011;15006;48.584;9.186;2023-12-22T01:37:39;2.55;;;1.10;;
27566;SDS011;15006;48.584;9.186;2023-12-22T01:40:06;2.53;;;0.80;;
27566;SDS011;15006;48.584;9.186;2023-12-22T01:42:33;1.08;;;0.70;;
27566;SDS011;15006;48.584;9.186;2023-12-22T01:44:58;2.70;;;0.70;;
27566;SDS011;15006;48.584;9.186;2023-12-22T01:47:24;1.77;;;0.38;;
27566;SDS011;15006;48.584;9.186;2023-12-22T01:49:51;1.67;;;0.40;;
27566;SDS011;15006;48.584;9.186;2023-12-22T01:52:17;0.30;;;0.28;;
27566;SDS011;15006;48.584;9.186;2023-12-22T01:54:44;0.30;;;0.30;;
27566;SDS011;15006;48.584;9.186;2023-12-22T01:57:11;2.08;;;0.40;;
27566;SDS011;15006;48.584;9.186;2023-12-22T01:59:43;0.43;;;0.40;;
27566;SDS011;15006;48.584;9.186;2023-12-22T02:02:10;0.47;;;0.40;;
27566;SDS011;15006;48.584;9.186;2023-12-22T02:04:36;0.30;;;0.30;;
27566;SDS011;15006;48.584;9.186;2023-12-22T02:07:02;0.28;;;0.28;;
27566;SDS011;15006;48.584;9.186;2023-12-22T02:09:29;0.45;;;0.35;;
27566;SDS011;15006;48.584;9.186;2023-12-22T02:11:56;1.00;;;0.30;;
27566;SDS011;15006;48.584;9.186;2023-12-22T02:14:22;0.40;;;0.32;;
27566;SDS011;15006;48.584;9.186;2023-12-22T02:16:51;1.58;;;0.50;;
27566;SDS011;15006;48.584;9.186;2023-12-22T02:22:05;2.53;;;0.63;;
27566;SDS011;15006;48.584;9.186;2023-12-22T02:24:32;0.82;;;0.50;;
27566;SDS011;15006;48.584;9.186;2023-12-22T02:27:10;1.38;;;0.50;;
27566;SDS011;15006;48.584;9.186;2023-12-22T02:30:11;1.67;;;0.68;;
27566;SDS011;15006;48.584;9.186;2023-12-22T02:32:50;1.73;;;0.60;;
27566;SDS011;15006;48.584;9.186;2023-12-22T02:35:23;2.97;;;0.95;;
27566;SDS011;15006;48.584;9.186;2023-12-22T02:37:52;2.00;;;0.80;;
27566;SDS011;15006;48.584;9.186;2023-12-22T02:40:19;3.13;;;1.00;;
27566;SDS011;15006;48.584;9.186;2023-12-22T02:42:46;2.70;;;1.00;;
27566;SDS011;15006;48.584;9.186;2023-12-22T02:45:14;5.88;;;0.95;;
27566;SDS011;15006;48.584;9.186;2023-12-22T02:47:42;3.75;;;1.20;;
27566;SDS011;15006;48.584;9.186;2023-12-22T02:50:09;4.25;;;1.00;;
27566;SDS011;15006;48.584;9.186;2023-12-22T02:52:37;4.13;;;1.30;;
27566;SDS011;15006;48.584;9.186;2023-12-22T02:55:04;3.85;;;0.98;;
27566;SDS011;15006;48.584;9.186;2023-12-22T02:57:30;4.97;;;1.02;;
27566;SDS011;15006;48.584;9.186;2023-12-22T02:59:57;3.55;;;1.50;;
27566;SDS011;15006;48.584;9.186;2023-12-22T03:02:23;3.25;;;1.10;;
27566;SDS011;15006;48.584;9.186;2023-12-22T03:04:50;3.45;;;1.10;;
27566;SDS011;15006;48.584;9.186;2023-12-22T03:07:16;3.33;;;1.00;;
27566;SDS011;15006;48.584;9.186;2023-12-22T03:09:42;3.03;;;1.20;;
27566;SDS011;15006;48.584;9.186;2023-12-22T03:12:08;2.63;;;1.10;;
27566;SDS011;15006;48.584;9.186;2023-12-22T03:14:35;4.03;;;1.02;;
27566;SDS011;15006;48.584;9.186;2023-12-22T03:17:05;3.65;;;1.20;;
27566;SDS011;15006;48.584;9.186;2023-12-22T03:19:32;1.92;;;0.73;;
27566;SDS011;15006;48.584;9.186;2023-12-22T03:21:59;2.55;;;0.65;;
27566;SDS011;15006;48.584;9.186;2023-12-22T03:24:25;1.55;;;0.93;;
27566;SDS011;15006;48.584;9.186;2023-12-22T03:26:52;3.88;;;0.98;;
27566;SDS011;15006;48.584;9.186;2023-12-22T03:29:18;2.10;;;0.98;;
27566;SDS011;15006;48.584;9.186;2023-12-22T03:31:44;1.80;;;0.90;;
27566;SDS011;15006;48.584;9.186;2023-12-22T03:34:11;1.27;;;0.80;;
27566;SDS011;15006;48.584;9.186;2023-12-22T03:36:38;3.30;;;0.80;;
27566;SDS011;15006;48.584;9.186;2023-12-22T03:39:04;2.53;;;0.70;;
27566;SDS011;15006;48.584;9.186;2023-12-22T03:41:31;3.00;;;0.80;;
27566;SDS011;15006;48.584;9.186;2023-12-22T03:43:57;1.23;;;0.70;;
27566;SDS011;15006;48.584;9.186;2023-12-22T03:46:23;1.75;;;0.60;;
27566;SDS011;15006;48.584;9.186;2023-12-22T03:48:50;1.77;;;0.65;;
27566;SDS011;15006;48.584;9.186;2023-12-22T03:51:16;1.20;;;0.70;;
27566;SDS011;15006;48.584;9.186;2023-12-22T03:53:42;2.67;;;0.85;;
27566;SDS011;15006;48.584;9.186;2023-12-22T03:56:08;2.25;;;0.98;;
27566;SDS011;15006;48.584;9.186;2023-12-22T03:58:35;5.18;;;1.30;;
27566;SDS011;15006;48.584;9.186;2023-12-22T04:01:01;2.67;;;1.00;;
27566;SDS011;15006;48.584;9.186;2023-12-22T04:03:28;6.70;;;0.98;;
27566;SDS011;15006;48.584;9.186;2023-12-22T04:05:54;5.40;;;1.05;;
27566;SDS011;15006;48.584;9.186;2023-12-22T04:08:20;3.10;;;1.30;;
27566;SDS011;15006;48.584;9.186;2023-12-22T04:10:46;4.38;;;1.13;;
27566;SDS011;15006;48.584;9.186;2023-12-22T04:13:13;3.67;;;1.25;;
27566;SDS011;15006;48.584;9.186;2023-12-22T04:15:39;4.63;;;1.17;;
27566;SDS011;15006;48.584;9.186;2023-12-22T04:18:05;3.67;;;1.30;;
27566;SDS011;15006;48.584;9.186;2023-12-22T04:20:31;5.40;;;1.58;;
27566;SDS011;15006;48.584;9.186;2023-12-22T04:22:57;5.47;;;1.30;;
27566;SDS011;15006;48.584;9.186;2023-12-22T04:25:23;4.35;;;1.20;;
27566;SDS011;15006;48.584;9.186;2023-12-22T04:27:50;5.88;;;1.50;;
27566;SDS011;15006;48.584;9.186;2023-12-22T04:30:17;5.63;;;1.42;;
27566;SDS011;15006;48.584;9.186;2023-12-22T04:32:43;3.63;;;1.30;;
27566;SDS011;15006;48.584;9.186;2023-12-22T04:35:09;3.80;;;1.65;;
27566;SDS011;15006;48.584;9.186;2023-12-22T04:37:34;5.38;;;1.67;;
27566;SDS011;15006;48.584;9.186;2023-12-22T04:40:01;4.13;;;1.45;;
27566;SDS011;15006;48.584;9.186;2023-12-22T04:42:28;5.63;;;1.55;;
27566;SDS011;15006;48.584;9.186;2023-12-22T04:44:54;7.65;;;1.58;;
27566;SDS011;15006;48.584;9.186;2023-12-22T04:47:20;4.88;;;1.45;;
27566;SDS011;15006;48.584;9.186;2023-12-22T04:49:46;3.38;;;1.42;;
27566;SDS011;15006;48.584;9.186;2023-12-22T04:52:12;5.38;;;1.63;;
27566;SDS011;15006;48.584;9.186;2023-12-22T04:54:38;5.50;;;1.38;;
27566;SDS011;15006;48.584;9.186;2023-12-22T04:57:04;4.88;;;1.27;;
27566;SDS011;15006;48.584;9.186;2023-12-22T04:59:30;5.90;;;1.75;;
27566;SDS011;15006;48.584;9.186;2023-12-22T05:01:56;6.30;;;1.63;;
27566;SDS011;15006;48.584;9.186;2023-12-22T05:04:22;2.70;;;1.42;;
27566;SDS011;15006;48.584;9.186;2023-12-22T05:06:48;9.10;;;1.90;;
27566;SDS011;15006;48.584;9.186;2023-12-22T05:09:15;5.25;;;1.40;;
27566;SDS011;15006;48.584;9.186;2023-12-22T05:11:41;3.83;;;1.55;;
27566;SDS011;15006;48.584;9.186;2023-12-22T05:14:10;5.45;;;1.30;;
27566;SDS011;15006;48.584;9.186;2023-12-22T05:16:36;5.00;;;1.30;;
27566;SDS011;15006;48.584;9.186;2023-12-22T05:19:02;7.70;;;1.65;;
27566;SDS011;15006;48.584;9.186;2023-12-22T05:21:28;7.10;;;1.50;;
27566;SDS011;15006;48.584;9.186;2023-12-22T05:23:55;5.32;;;1.65;;
27566;SDS011;15006;48.584;9.186;2023-12-22T05:26:21;10.93;;;1.70;;
27566;SDS011;15006;48.584;9.186;2023-12-22T05:28:48;5.95;;;1.92;;
27566;SDS011;15006;48.584;9.186;2023-12-22T05:31:17;11.27;;;2.08;;
27566;SDS011;15006;48.584;9.186;2023-12-22T05:33:44;7.47;;;2.05;;
27566;SDS011;15006;48.584;9.186;2023-12-22T05:36:10;7.07;;;1.90;;
27566;SDS011;15006;48.584;9.186;2023-12-22T05:38:39;5.43;;;1.80;;
27566;SDS011;15006;48.584;9.186;2023-12-22T05:41:05;7.97;;;1.63;;
27566;SDS011;15006;48.584;9.186;2023-12-22T05:43:32;6.10;;;1.70;;
27566;SDS011;15006;48.584;9.186;2023-12-22T05:46:01;8.07;;;2.33;;
27566;SDS011;15006;48.584;9.186;2023-12-22T05:48:27;8.05;;;2.47;;
27566;SDS011;15006;48.584;9.186;2023-12-22T05:50:57;10.38;;;2.40;;
27566;SDS011;15006;48.584;9.186;2023-12-22T05:53:23;8.43;;;1.90;;
27566;SDS011;15006;48.584;9.186;2023-12-22T05:55:49;6.95;;;1.73;;
27566;SDS011;15006;48.584;9.186;2023-12-22T05:58:15;7.28;;;1.77;;
27566;SDS011;15006;48.584;9.186;2023-12-22T06:00:41;9.40;;;2.15;;
27566;SDS011;15006;48.584;9.186;2023-12-22T06:03:07;8.82;;;2.00;;
27566;SDS011;15006;48.584;9.186;2023-12-22T06:05:33;8.18;;;1.98;;
27566;SDS011;15006;48.584;9.186;2023-12-22T06:07:59;10.20;;;2.00;;
27566;SDS011;15006;48.584;9.186;2023-12-22T06:10:25;7.40;;;2.10;;
27566;SDS011;15006;48.584;9.186;2023-12-22T06:12:50;6.60;;;1.80;;
27566;SDS011;15006;48.584;9.186;2023-12-22T06:15:17;6.57;;;2.20;;
27566;SDS011;15006;48.584;9.186;2023-12-22T06:17:42;7.05;;;2.15;;
27566;SDS011;15006;48.584;9.186;2023-12-22T06:20:09;9.55;;;2.35;;
27566;SDS011;15006;48.584;9.186;2023-12-22T06:22:35;12.63;;;2.58;;
27566;SDS011;15006;48.584;9.186;2023-12-22T06:25:01;6.07;;;2.05;;
27566;SDS011;15006;48.584;9.186;2023-12-22T06:27:35;8.52;;;2.28;;
27566;SDS011;15006;48.584;9.186;2023-12-22T06:30:03;6.77;;;2.10;;
27566;SDS011;15006;48.584;9.186;2023-12-22T06:32:31;7.20;;;1.60;;
27566;SDS011;15006;48.584;9.186;2023-12-22T06:34:58;8.65;;;2.08;;
27566;SDS011;15006;48.584;9.186;2023-12-22T06:37:26;6.32;;;1.52;;
27566;SDS011;15006;48.584;9.186;2023-12-22T06:39:52;11.48;;;2.60;;
27566;SDS011;15006;48.584;9.186;2023-12-22T06:42:18;5.97;;;1.80;;
27566;SDS011;15006;48.584;9.186;2023-12-22T06:44:44;6.30;;;1.60;;
27566;SDS011;15006;48.584;9.186;2023-12-22T06:47:10;6.40;;;1.55;;
27566;SDS011;15006;48.584;9.186;2023-12-22T06:49:36;7.43;;;1.75;;
27566;SDS011;15006;48.584;9.186;2023-12-22T06:52:02;6.97;;;1.88;;
27566;SDS011;15006;48.584;9.186;2023-12-22T06:54:29;5.47;;;2.05;;
27566;SDS011;15006;48.584;9.186;2023-12-22T06:56:55;9.85;;;1.85;;
27566;SDS011;15006;48.584;9.186;2023-12-22T06:59:21;5.70;;;1.60;;
27566;SDS011;15006;48.584;9.186;2023-12-22T07:01:47;11.57;;;1.90;;
27566;SDS011;15006;48.584;9.186;2023-12-22T07:04:13;8.55;;;2.38;;
27566;SDS011;15006;48.584;9.186;2023-12-22T07:06:39;6.50;;;2.00;;
27566;SDS011;15006;48.584;9.186;2023-12-22T07:11:38;6.15;;;2.03;;
27566;SDS011;15006;48.584;9.186;2023-12-22T07:14:05;5.25;;;1.80;;
27566;SDS011;15006;48.584;9.186;2023-12-22T07:16:32;9.93;;;2.38;;
27566;SDS011;15006;48.584;9.186;2023-12-22T07:19:00;8.20;;;2.60;;
27566;SDS011;15006;48.584;9.186;2023-12-22T07:21:26;7.53;;;2.03;;
27566;SDS011;15006;48.584;9.186;2023-12-22T07:23:52;11.02;;;2.33;;
27566;SDS011;15006;48.584;9.186;2023-12-22T07:26:18;6.30;;;1.88;;
27566;SDS011;15006;48.584;9.186;2023-12-22T07:28:44;8.48;;;2.22;;
27566;SDS011;15006;48.584;9.186;2023-12-22T07:31:10;9.45;;;2.03;;
27566;SDS011;15006;48.584;9.186;2023-12-22T07:33:36;8.32;;;2.33;;
27566;SDS011;15006;48.584;9.186;2023-12-22T07:36:02;12.68;;;1.95;;
27566;SDS011;15006;48.584;9.186;2023-12-22T07:38:28;17.58;;;2.35;;
27566;SDS011;15006;48.584;9.186;2023-12-22T07:40:54;10.23;;;1.90;;
27566;SDS011;15006;48.584;9.186;2023-12-22T07:43:20;5.03;;;2.17;;
27566;SDS011;15006;48.584;9.186;2023-12-22T07:45:46;8.10;;;2.78;;
27566;SDS011;15006;48.584;9.186;2023-12-22T07:48:13;6.95;;;2.17;;
27566;SDS011;15006;48.584;9.186;2023-12-22T07:50:40;7.85;;;2.60;;
27566;SDS011;15006;48.584;9.186;2023-12-22T07:53:07;11.13;;;2.30;;
27566;SDS011;15006;48.584;9.186;2023-12-22T07:55:33;10.18;;;1.85;;
27566;SDS011;15006;48.584;9.186;2023-12-22T07:58:00;8.95;;;2.28;;
27566;SDS011;15006;48.584;9.186;2023-12-22T08:00:26;11.18;;;2.35;;
27566;SDS011;15006;48.584;9.186;2023-12-22T08:02:53;12.55;;;2.65;;
27566;SDS011;15006;48.584;9.186;2023-12-22T08:05:19;10.18;;;2.13;;
27566;SDS011;15006;48.584;9.186;2023-12-22T08:07:45;11.23;;;2.25;;
27566;SDS011;15006;48.584;9.186;2023-12-22T08:10:11;7.82;;;2.20;;
27566;SDS011;15006;48.584;9.186;2023-12-22T08:12:37;14.13;;;2.55;;
27566;SDS011;15006;48.584;9.186;2023-12-22T08:15:03;8.57;;;2.15;;
27566;SDS011;15006;48.584;9.186;2023-12-22T08:17:31;10.97;;;2.50;;
27566;SDS011;15006;48.584;9.186;2023-12-22T08:22:57;11.50;;;2.33;;
27566;SDS011;15006;48.584;9.186;2023-12-22T08:25:23;10.20;;;3.03;;
27566;SDS011;15006;48.584;9.186;2023-12-22T08:27:49;11.60;;;2.85;;
27566;SDS011;15006;48.584;9.186;2023-12-22T08:30:15;8.45;;;2.00;;
27566;SDS011;15006;48.584;9.186;2023-12-22T08:32:40;10.82;;;2.92;;
27566;SDS011;15006;48.584;9.186;2023-12-22T08:35:07;10.98;;;2.38;;
27566;SDS011;15006;48.584;9.186;2023-12-22T08:37:33;10.30;;;2.75;;
27566;SDS011;15006;48.584;9.186;2023-12-22T08:39:59;8.13;;;2.78;;
27566;SDS011;15006;48.584;9.186;2023-12-22T08:42:26;5.95;;;2.00;;
27566;SDS011;15006;48.584;9.186;2023-12-22T08:44:52;11.75;;;3.00;;
27566;SDS011;15006;48.584;9.186;2023-12-22T08:47:18;7.93;;;2.30;;
27566;SDS011;15006;48.584;9.186;2023-12-22T08:49:44;13.35;;;2.33;;
27566;SDS011;15006;48.584;9.186;2023-12-22T08:52:10;7.15;;;2.17;;
27566;SDS011;15006;48.584;9.186;2023-12-22T08:54:37;13.00;;;3.13;;
27566;SDS011;15006;48.584;9.186;2023-12-22T08:57:03;10.32;;;2.92;;
27566;SDS011;15006;48.584;9.186;2023-12-22T08:59:29;9.43;;;2.80;;
27566;SDS011;15006;48.584;9.186;2023-12-22T09:01:55;10.38;;;2.47;;
27566;SDS011;15006;48.584;9.186;2023-12-22T09:04:21;10.20;;;3.25;;
27566;SDS011;15006;48.584;9.186;2023-12-22T09:06:51;7.85;;;2.00;;
27566;SDS011;15006;48.584;9.186;2023-12-22T09:09:17;8.73;;;2.47;;
27566;SDS011;15006;48.584;9.186;2023-12-22T09:11:43;10.50;;;2.80;;
27566;SDS011;15006;48.584;9.186;2023-12-22T09:14:10;8.57;;;2.00;;
27566;SDS011;15006;48.584;9.186;2023-12-22T09:16:36;10.25;;;2.00;;
27566;SDS011;15006;48.584;9.186;2023-12-22T09:19:03;10.23;;;2.83;;
27566;SDS011;15006;48.584;9.186;2023-12-22T09:21:30;8.30;;;2.10;;
27566;SDS011;15006;48.584;9.186;2023-12-22T09:23:56;10.18;;;2.40;;
27566;SDS011;15006;48.584;9.186;2023-12-22T09:26:21;11.90;;;2.15;;
27566;SDS011;15006;48.584;9.186;2023-12-22T09:28:47;11.25;;;2.53;;
27566;SDS011;15006;48.584;9.186;2023-12-22T09:31:14;11.85;;;2.47;;
27566;SDS011;15006;48.584;9.186;2023-12-22T09:33:40;10.93;;;2.42;;
27566;SDS011;15006;48.584;9.186;2023-12-22T09:36:08;9.52;;;2.33;;
27566;SDS011;15006;48.584;9.186;2023-12-22T09:38:34;6.53;;;2.22;;
27566;SDS011;15006;48.584;9.186;2023-12-22T09:41:01;11.30;;;2.00;;
27566;SDS011;15006;48.584;9.186;2023-12-22T09:43:27;10.15;;;3.13;;
27566;SDS011;15006;48.584;9.186;2023-12-22T09:45:54;7.20;;;2.33;;
27566;SDS011;15006;48.584;9.186;2023-12-22T09:48:21;7.95;;;2.70;;
27566;SDS011;15006;48.584;9.186;2023-12-22T09:50:54;11.80;;;3.08;;
27566;SDS011;15006;48.584;9.186;2023-12-22T09:53:20;9.82;;;2.72;;
27566;SDS011;15006;48.584;9.186;2023-12-22T09:55:49;14.18;;;2.60;;
27566;SDS011;15006;48.584;9.186;2023-12-22T09:58:15;7.22;;;2.17;;
27566;SDS011;15006;48.584;9.186;2023-12-22T10:00:42;6.55;;;2.15;;
27566;SDS011;15006;48.584;9.186;2023-12-22T10:03:09;7.03;;;2.78;;
27566;SDS011;15006;48.584;9.186;2023-12-22T10:05:37;10.43;;;2.15;;
27566;SDS011;15006;48.584;9.186;2023-12-22T10:08:05;8.30;;;2.38;;
27566;SDS011;15006;48.584;9.186;2023-12-22T10:10:32;7.30;;;2.13;;
27566;SDS011;15006;48.584;9.186;2023-12-22T10:13:01;11.48;;;2.33;;
27566;SDS011;15006;48.584;9.186;2023-12-22T10:15:29;9.60;;;2.65;;
27566;SDS011;15006;48.584;9.186;2023-12-22T10:17:56;13.85;;;2.92;;
27566;SDS011;15006;48.584;9.186;2023-12-22T10:20:23;8.70;;;2.33;;
27566;SDS011;15006;48.584;9.186;2023-12-22T10:22:49;15.02;;;2.95;;
27566;SDS011;15006;48.584;9.186;2023-12-22T10:25:15;11.27;;;2.45;;
27566;SDS011;15006;48.584;9.186;2023-12-22T10:27:46;12.75;;;2.95;;
27566;SDS011;15006;48.584;9.186;2023-12-22T10:30:12;11.70;;;2.80;;
27566;SDS011;15006;48.584;9.186;2023-12-22T10:32:40;11.88;;;2.50;;
27566;SDS011;15006;48.584;9.186;2023-12-22T10:35:09;9.65;;;2.60;;
27566;SDS011;15006;48.584;9.186;2023-12-22T10:37:35;14.05;;;3.13;;
27566;SDS011;15006;48.584;9.186;2023-12-22T10:40:04;10.38;;;2.30;;
27566;SDS011;15006;48.584;9.186;2023-12-22T10:42:31;12.50;;;2.17;;
27566;SDS011;15006;48.584;9.186;2023-12-22T10:44:58;9.88;;;2.60;;
27566;SDS011;15006;48.584;9.186;2023-12-22T10:47:24;9.68;;;2.75;;
27566;SDS011;15006;48.584;9.186;2023-12-22T10:49:50;8.75;;;2.90;;
27566;SDS011;15006;48.584;9.186;2023-12-22T10:52:17;11.85;;;2.75;;
27566;SDS011;15006;48.584;9.186;2023-12-22T10:54:44;14.07;;;4.20;;
27566;SDS011;15006;48.584;9.186;2023-12-22T10:57:10;12.52;;;4.47;;
27566;SDS011;15006;48.584;9.186;2023-12-22T10:59:39;13.55;;;3.55;;
27566;SDS011;15006;48.584;9.186;2023-12-22T11:02:12;13.10;;;4.07;;
27566;SDS011;15006;48.584;9.186;2023-12-22T11:04:47;14.32;;;3.90;;
27566;SDS011;15006;48.584;9.186;2023-12-22T11:07:28;16.23;;;4.80;;
27566;SDS011;15006;48.584;9.186;2023-12-22T11:09:56;11.63;;;4.03;;
27566;SDS011;15006;48.584;9.186;2023-12-22T11:12:28;12.10;;;3.00;;
27566;SDS011;15006;48.584;9.186;2023-12-22T11:14:58;7.10;;;1.95;;
27566;SDS011;15006;48.584;9.186;2023-12-22T11:17:28;5.22;;;2.28;;
27566;SDS011;15006;48.584;9.186;2023-12-22T11:20:00;10.35;;;2.40;;
27566;SDS011;15006;48.584;9.186;2023-12-22T11:22:28;6.25;;;1.90;;
27566;SDS011;15006;48.584;9.186;2023-12-22T11:24:57;4.45;;;1.77;;
27566;SDS011;15006;48.584;9.186;2023-12-22T11:27:26;7.05;;;1.80;;
27566;SDS011;15006;48.584;9.186;2023-12-22T11:29:53;8.27;;;2.83;;
27566;SDS011;15006;48.584;9.186;2023-12-22T11:32:20;6.90;;;2.08;;
27566;SDS011;15006;48.584;9.186;2023-12-22T11:34:46;10.93;;;2.97;;
27566;SDS011;15006;48.584;9.186;2023-12-22T11:37:14;8.35;;;2.60;;
27566;SDS011;15006;48.584;9.186;2023-12-22T11:39:42;6.18;;;2.15;;
27566;SDS011;15006;48.584;9.186;2023-12-22T11:42:10;5.60;;;2.28;;
27566;SDS011;15006;48.584;9.186;2023-12-22T11:44:41;7.03;;;2.53;;
27566;SDS011;15006;48.584;9.186;2023-12-22T11:47:08;5.63;;;2.08;;
27566;SDS011;15006;48.584;9.186;2023-12-22T11:49:35;14.77;;;2.75;;
27566;SDS011;15006;48.584;9.186;2023-12-22T11:52:15;11.07;;;2.20;;
27566;SDS011;15006;48.584;9.186;2023-12-22T11:54:50;11.80;;;2.72;;
27566;SDS011;15006;48.584;9.186;2023-12-22T11:59:59;10.40;;;2.30;;
27566;SDS011;15006;48.584;9.186;2023-12-22T12:02:32;6.38;;;2.22;;
27566;SDS011;15006;48.584;9.186;2023-12-22T12:05:01;8.65;;;2.33;;
27566;SDS011;15006;48.584;9.186;2023-12-22T12:10:11;8.82;;;2.03;;
27566;SDS011;15006;48.584;9.186;2023-12-22T12:12:39;4.78;;;1.58;;
27566;SDS011;15006;48.584;9.186;2023-12-22T12:15:06;4.88;;;1.50;;
27566;SDS011;15006;48.584;9.186;2023-12-22T12:17:42;5.50;;;1.15;;
27566;SDS011;15006;48.584;9.186;2023-12-22T12:20:11;5.15;;;1.40;;
27566;SDS011;15006;48.584;9.186;2023-12-22T12:22:37;5.93;;;1.45;;
27566;SDS011;15006;48.584;9.186;2023-12-22T12:25:08;5.20;;;1.58;;
27566;SDS011;15006;48.584;9.186;2023-12-22T12:27:37;16.48;;;1.85;;
27566;SDS011;15006;48.584;9.186;2023-12-22T12:30:09;6.07;;;1.95;;
27566;SDS011;15006;48.584;9.186;2023-12-22T12:32:38;5.32;;;1.30;;
27566;SDS011;15006;48.584;9.186;2023-12-22T12:35:11;5.35;;;1.77;;
27566;SDS011;15006;48.584;9.186;2023-12-22T12:37:38;3.88;;;1.27;;
27566;SDS011;15006;48.584;9.186;2023-12-22T12:40:05;3.90;;;1.23;;
27566;SDS011;15006;48.584;9.186;2023-12-22T12:42:34;1.95;;;0.90;;
27566;SDS011;15006;48.584;9.186;2023-12-22T12:45:05;2.63;;;1.08;;
27566;SDS011;15006;48.584;9.186;2023-12-22T12:47:32;3.10;;;1.05;;
27566;SDS011;15006;48.584;9.186;2023-12-22T12:49:59;2.67;;;1.00;;
27566;SDS011;15006;48.584;9.186;2023-12-22T12:52:26;2.08;;;1.00;;
27566;SDS011;15006;48.584;9.186;2023-12-22T12:54:53;3.17;;;0.90;;
27566;SDS011;15006;48.584;9.186;2023-12-22T12:57:19;4.53;;;1.17;;
27566;SDS011;15006;48.584;9.186;2023-12-22T12:59:50;2.05;;;1.08;;
27566;SDS011;15006;48.584;9.186;2023-12-22T13:02:19;0.70;;;0.50;;
27566;SDS011;15006;48.584;9.186;2023-12-22T13:04:46;2.67;;;0.60;;
27566;SDS011;15006;48.584;9.186;2023-12-22T13:07:12;0.60;;;0.50;;
27566;SDS011;15006;48.584;9.186;2023-12-22T13:09:38;0.60;;;0.50;;
27566;SDS011;15006;48.584;9.186;2023-12-22T13:12:07;1.10;;;0.70;;
27566;SDS011;15006;48.584;9.186;2023-12-22T13:14:34;2.72;;;0.55;;
27566;SDS011;15006;48.584;9.186;2023-12-22T13:17:00;0.73;;;0.50;;
27566;SDS011;15006;48.584;9.186;2023-12-22T13:19:26;2.05;;;0.60;;
27566;SDS011;15006;48.584;9.186;2023-12-22T13:21:55;2.78;;;0.50;;
27566;SDS011;15006;48.584;9.186;2023-12-22T13:24:22;2.90;;;0.43;;
27566;SDS011;15006;48.584;9.186;2023-12-22T13:26:58;2.05;;;0.70;;
27566;SDS011;15006;48.584;9.186;2023-12-22T13:29:27;1.15;;;0.47;;
27566;SDS011;15006;48.584;9.186;2023-12-22T13:31:53;2.05;;;0.60;;
27566;SDS011;15006;48.584;9.186;2023-12-22T13:34:19;0.40;;;0.40;;
27566;SDS011;15006;48.584;9.186;2023-12-22T13:36:45;0.55;;;0.50;;
27566;SDS011;15006;48.584;9.186;2023-12-22T13:39:11;1.85;;;0.50;;
27566;SDS011;15006;48.584;9.186;2023-12-22T13:41:38;0.52;;;0.35;;
27566;SDS011;15006;48.584;9.186;2023-12-22T13:44:11;0.50;;;0.50;;
27566;SDS011;15006;48.584;9.186;2023-12-22T13:46:38;1.10;;;0.40;;
27566;SDS011;15006;48.584;9.186;2023-12-22T13:49:07;0.55;;;0.50;;
27566;SDS011;15006;48.584;9.186;2023-12-22T13:51:45;0.75;;;0.47;;
27566;SDS011;15006;48.584;9.186;2023-12-22T13:54:14;2.90;;;0.38;;
27566;SDS011;15006;48.584;9.186;2023-12-22T13:56:40;0.30;;;0.30;;
27566;SDS011;15006;48.584;9.186;2023-12-22T13:59:07;1.55;;;0.70;;
27566;SDS011;15006;48.584;9.186;2023-12-22T14:01:33;1.73;;;0.70;;
27566;SDS011;15006;48.584;9.186;2023-12-22T14:04:00;1.83;;;1.17;;
27566;SDS011;15006;48.584;9.186;2023-12-22T14:06:26;1.38;;;1.27;;
27566;SDS011;15006;48.584;9.186;2023-12-22T14:08:53;4.00;;;2.95;;
27566;SDS011;15006;48.584;9.186;2023-12-22T14:11:19;1.42;;;0.80;;
27566;SDS011;15006;48.584;9.186;2023-12-22T14:13:46;1.38;;;1.10;;
27566;SDS011;15006;48.584;9.186;2023-12-22T14:16:12;3.30;;;1.08;;
27566;SDS011;15006;48.584;9.186;2023-12-22T14:18:40;0.70;;;0.70;;
27566;SDS011;15006;48.584;9.186;2023-12-22T14:21:08;1.13;;;1.02;;
27566;SDS011;15006;48.584;9.186;2023-12-22T14:23:34;3.13;;;2.70;;
27566;SDS011;15006;48.584;9.186;2023-12-22T14:26:00;19.67;;;10.45;;
27566;SDS011;15006;48.584;9.186;2023-12-22T14:28:26;12.32;;;7.50;;
27566;SDS011;15006;48.584;9.186;2023-12-22T14:30:53;10.25;;;6.18;;
27566;SDS011;15006;48.584;9.186;2023-12-22T14:33:19;8.32;;;5.00;;
27566;SDS011;15006;48.584;9.186;2023-12-22T14:35:45;24.65;;;12.60;;
27566;SDS011;15006;48.584;9.186;2023-12-22T14:38:11;2.33;;;2.13;;
27566;SDS011;15006;48.584;9.186;2023-12-22T14:40:37;6.18;;;3.88;;
27566;SDS011;15006;48.584;9.186;2023-12-22T14:43:03;4.75;;;3.97;;
27566;SDS011;15006;48.584;9.186;2023-12-22T14:45:29;3.13;;;2.60;;
27566;SDS011;15006;48.584;9.186;2023-12-22T14:47:55;22.13;;;11.13;;
27566;SDS011;15006;48.584;9.186;2023-12-22T14:50:21;0.95;;;0.93;;
27566;SDS011;15006;48.584;9.186;2023-12-22T14:52:47;4.25;;;3.42;;
27566;SDS011;15006;48.584;9.186;2023-12-22T14:55:13;1.55;;;1.15;;
27566;SDS011;15006;48.584;9.186;2023-12-22T14:57:39;16.73;;;8.02;;